sensor_id;sensor_type;location;lat;lon;timestamp;pressure;altitude;pressure_sealevel;temperature;humidity
70559;BME280;58108;48.094;11.838;2023-11-21T00:01:54;94864.03;;;5.16;90.34
70559;BME280;58108;48.094;11.838;2023-11-21T00:04:20;94855.94;;;5.07;91.36
70559;BME280;58108;48.094;11.838;2023-11-21T00:06:46;94856.25;;;5.29;90.15
70559;BME280;58108;48.094;11.838;2023-11-21T00:09:15;94866.84;;;5.39;89.59
70559;BME280;58108;48.094;11.838;2023-11-21T00:11:41;94860.72;;;5.14;90.95
70559;BME280;58108;48.094;11.838;2023-11-21T00:14:07;94861.53;;;5.01;93.40
70559;BME280;58108;48.094;11.838;2023-11-21T00:16:33;94861.03;;;5.09;91.90
70559;BME280;58108;48.094;11.838;2023-11-21T00:18:59;94863.59;;;4.83;94.16
70559;BME280;58108;48.094;11.838;2023-11-21T00:21:25;94849.38;;;5.02;95.15
70559;BME280;58108;48.094;11.838;2023-11-21T00:23:50;94850.13;;;5.04;94.05
70559;BME280;58108;48.094;11.838;2023-11-21T00:26:16;94846.28;;;5.23;94.73
70559;BME280;58108;48.094;11.838;2023-11-21T00:28:45;94860.91;;;5.37;94.35
70559;BME280;58108;48.094;11.838;2023-11-21T00:31:11;94852.31;;;5.49;93.18
70559;BME280;58108;48.094;11.838;2023-11-21T00:33:37;94850.84;;;5.45;95.04
70559;BME280;58108;48.094;11.838;2023-11-21T00:36:02;94845.13;;;5.27;95.53
70559;BME280;58108;48.094;11.838;2023-11-21T00:38:28;94844.84;;;5.44;94.61
70559;BME280;58108;48.094;11.838;2023-11-21T00:40:53;94841.94;;;5.36;95.05
70559;BME280;58108;48.094;11.838;2023-11-21T00:43:24;94839.31;;;5.23;96.34
70559;BME280;58108;48.094;11.838;2023-11-21T00:45:50;94839.31;;;5.23;97.12
70559;BME280;58108;48.094;11.838;2023-11-21T00:48:16;94840.88;;;5.13;98.39
70559;BME280;58108;48.094;11.838;2023-11-21T00:50:43;94832.03;;;4.89;100.00
70559;BME280;58108;48.094;11.838;2023-11-21T00:53:09;94833.91;;;4.87;100.00
70559;BME280;58108;48.094;11.838;2023-11-21T00:55:35;94832.25;;;4.99;100.00
70559;BME280;58108;48.094;11.838;2023-11-21T00:58:00;94826.94;;;4.75;100.00
70559;BME280;58108;48.094;11.838;2023-11-21T01:00:29;94828.09;;;4.84;100.00
70559;BME280;58108;48.094;11.838;2023-11-21T01:02:55;94826.91;;;4.62;100.00
70559;BME280;58108;48.094;11.838;2023-11-21T01:05:21;94816.47;;;4.76;100.00
70559;BME280;58108;48.094;11.838;2023-11-21T01:07:46;94828.63;;;5.15;100.00
70559;BME280;58108;48.094;11.838;2023-11-21T01:10:12;94823.88;;;5.22;100.00
70559;BME280;58108;48.094;11.838;2023-11-21T01:12:38;94815.53;;;4.77;100.00
70559;BME280;58108;48.094;11.838;2023-11-21T01:15:05;94817.16;;;4.53;100.00
70559;BME280;58108;48.094;11.838;2023-11-21T01:17:34;94815.41;;;4.53;100.00
70559;BME280;58108;48.094;11.838;2023-11-21T01:20:00;94820.88;;;4.48;100.00
70559;BME280;58108;48.094;11.838;2023-11-21T01:22:26;94818.41;;;4.60;100.00
70559;BME280;58108;48.094;11.838;2023-11-21T01:24:53;94815.28;;;4.55;100.00
70559;BME280;58108;48.094;11.838;2023-11-21T01:27:19;94808.06;;;4.86;100.00
70559;BME280;58108;48.094;11.838;2023-11-21T01:29:44;94812.00;;;4.78;100.00
70559;BME280;58108;48.094;11.838;2023-11-21T01:32:10;94811.66;;;4.57;100.00
70559;BME280;58108;48.094;11.838;2023-11-21T01:34:36;94810.75;;;4.71;100.00
70559;BME280;58108;48.094;11.838;2023-11-21T01:37:02;94813.25;;;4.73;100.00
70559;BME280;58108;48.094;11.838;2023-11-21T01:39:31;94816.06;;;4.70;100.00
70559;BME280;58108;48.094;11.838;2023-11-21T01:41:57;94817.69;;;4.58;100.00
70559;BME280;58108;48.094;11.838;2023-11-21T01:44:24;94811.72;;;4.43;100.00
70559;BME280;58108;48.094;11.838;2023-11-21T01:46:50;94810.00;;;4.43;100.00
70559;BME280;58108;48.094;11.838;2023-11-21T01:49:17;94814.47;;;4.27;100.00
70559;BME280;58108;48.094;11.838;2023-11-21T01:51:48;94810.81;;;4.16;100.00
70559;BME280;58108;48.094;11.838;2023-11-21T01:54:15;94809.59;;;3.94;100.00
70559;BME280;58108;48.094;11.838;2023-11-21T01:56:45;94811.16;;;4.24;100.00
70559;BME280;58108;48.094;11.838;2023-11-21T01:59:12;94808.09;;;4.05;100.00
70559;BME280;58108;48.094;11.838;2023-11-21T02:01:39;94809.09;;;4.17;100.00
70559;BME280;58108;48.094;11.838;2023-11-21T02:04:05;94816.94;;;4.15;100.00
70559;BME280;58108;48.094;11.838;2023-11-21T02:06:34;94809.22;;;4.28;100.00
70559;BME280;58108;48.094;11.838;2023-11-21T02:08:59;94807.47;;;4.42;100.00
70559;BME280;58108;48.094;11.838;2023-11-21T02:11:26;94803.31;;;4.39;100.00
70559;BME280;58108;48.094;11.838;2023-11-21T02:13:53;94807.41;;;4.43;100.00
70559;BME280;58108;48.094;11.838;2023-11-21T02:16:19;94805.53;;;4.45;100.00
70559;BME280;58108;48.094;11.838;2023-11-21T02:18:49;94804.50;;;4.48;100.00
70559;BME280;58108;48.094;11.838;2023-11-21T02:21:16;94801.72;;;4.64;100.00
70559;BME280;58108;48.094;11.838;2023-11-21T02:23:42;94800.66;;;4.54;100.00
70559;BME280;58108;48.094;11.838;2023-11-21T02:26:10;94801.19;;;4.18;100.00
70559;BME280;58108;48.094;11.838;2023-11-21T02:28:36;94804.88;;;4.29;100.00
70559;BME280;58108;48.094;11.838;2023-11-21T02:31:02;94801.19;;;4.18;100.00
70559;BME280;58108;48.094;11.838;2023-11-21T02:33:30;94800.41;;;3.76;100.00
70559;BME280;58108;48.094;11.838;2023-11-21T02:36:00;94801.75;;;3.96;100.00
70559;BME280;58108;48.094;11.838;2023-11-21T02:38:25;94793.81;;;3.85;100.00
70559;BME280;58108;48.094;11.838;2023-11-21T02:40:51;94808.53;;;4.12;100.00
70559;BME280;58108;48.094;11.838;2023-11-21T02:43:17;94805.25;;;4.22;100.00
70559;BME280;58108;48.094;11.838;2023-11-21T02:45:42;94815.25;;;4.42;100.00
70559;BME280;58108;48.094;11.838;2023-11-21T02:48:08;94812.00;;;4.78;100.00
70559;BME280;58108;48.094;11.838;2023-11-21T02:50:34;94814.94;;;5.00;100.00
70559;BME280;58108;48.094;11.838;2023-11-21T02:53:01;94817.72;;;4.84;100.00
70559;BME280;58108;48.094;11.838;2023-11-21T02:55:27;94819.59;;;4.95;100.00
70559;BME280;58108;48.094;11.838;2023-11-21T02:57:53;94815.69;;;5.28;98.45
70559;BME280;58108;48.094;11.838;2023-11-21T03:00:19;94815.56;;;5.03;99.95
70559;BME280;58108;48.094;11.838;2023-11-21T03:02:44;94819.81;;;5.17;99.45
70559;BME280;58108;48.094;11.838;2023-11-21T03:05:10;94828.72;;;5.00;100.00
70559;BME280;58108;48.094;11.838;2023-11-21T03:07:39;94825.72;;;5.19;100.00
70559;BME280;58108;48.094;11.838;2023-11-21T03:10:06;94825.63;;;5.21;100.00
70559;BME280;58108;48.094;11.838;2023-11-21T03:12:40;94830.59;;;5.11;100.00
70559;BME280;58108;48.094;11.838;2023-11-21T03:15:06;94824.38;;;5.27;100.00
70559;BME280;58108;48.094;11.838;2023-11-21T03:17:32;94826.47;;;5.22;100.00
70559;BME280;58108;48.094;11.838;2023-11-21T03:20:00;94810.91;;;5.22;100.00
70559;BME280;58108;48.094;11.838;2023-11-21T03:22:25;94805.69;;;5.09;100.00
70559;BME280;58108;48.094;11.838;2023-11-21T03:24:51;94804.88;;;4.95;100.00
70559;BME280;58108;48.094;11.838;2023-11-21T03:27:18;94800.50;;;4.96;100.00
70559;BME280;58108;48.094;11.838;2023-11-21T03:29:44;94792.63;;;4.97;100.00
70559;BME280;58108;48.094;11.838;2023-11-21T03:32:12;94799.06;;;5.04;100.00
70559;BME280;58108;48.094;11.838;2023-11-21T03:34:53;94787.31;;;4.86;100.00
70559;BME280;58108;48.094;11.838;2023-11-21T03:37:20;94794.69;;;4.92;100.00
70559;BME280;58108;48.094;11.838;2023-11-21T03:39:46;94795.84;;;4.88;100.00
70559;BME280;58108;48.094;11.838;2023-11-21T03:42:12;94795.00;;;4.87;100.00
70559;BME280;58108;48.094;11.838;2023-11-21T03:44:38;94792.94;;;4.79;100.00
70559;BME280;58108;48.094;11.838;2023-11-21T03:47:03;94790.53;;;5.15;100.00
70559;BME280;58108;48.094;11.838;2023-11-21T03:49:29;94788.03;;;5.27;100.00
70559;BME280;58108;48.094;11.838;2023-11-21T03:51:55;94797.41;;;5.03;100.00
70559;BME280;58108;48.094;11.838;2023-11-21T03:54:22;94791.56;;;5.26;100.00
70559;BME280;58108;48.094;11.838;2023-11-21T03:56:48;94796.34;;;5.32;100.00
70559;BME280;58108;48.094;11.838;2023-11-21T03:59:14;94796.34;;;5.19;100.00
70559;BME280;58108;48.094;11.838;2023-11-21T04:01:40;94790.53;;;5.28;100.00
70559;BME280;58108;48.094;11.838;2023-11-21T04:04:05;94798.63;;;5.24;100.00
70559;BME280;58108;48.094;11.838;2023-11-21T04:06:31;94786.69;;;5.21;100.00
70559;BME280;58108;48.094;11.838;2023-11-21T04:08:58;94794.59;;;5.06;100.00
70559;BME280;58108;48.094;11.838;2023-11-21T04:11:24;94794.19;;;5.13;100.00
70559;BME280;58108;48.094;11.838;2023-11-21T04:13:49;94796.53;;;5.16;100.00
70559;BME280;58108;48.094;11.838;2023-11-21T04:16:15;94793.75;;;5.19;100.00
70559;BME280;58108;48.094;11.838;2023-11-21T04:18:41;94793.25;;;5.14;100.00
70559;BME280;58108;48.094;11.838;2023-11-21T04:21:07;94785.34;;;5.28;100.00
70559;BME280;58108;48.094;11.838;2023-11-21T04:23:33;94787.53;;;5.09;100.00
70559;BME280;58108;48.094;11.838;2023-11-21T04:26:00;94792.84;;;5.07;100.00
70559;BME280;58108;48.094;11.838;2023-11-21T04:28:27;94788.03;;;5.27;100.00
70559;BME280;58108;48.094;11.838;2023-11-21T04:30:53;94793.13;;;5.15;100.00
70559;BME280;58108;48.094;11.838;2023-11-21T04:33:19;94792.84;;;5.07;100.00
70559;BME280;58108;48.094;11.838;2023-11-21T04:35:45;94798.97;;;5.06;100.00
70559;BME280;58108;48.094;11.838;2023-11-21T04:38:11;94793.66;;;5.07;100.00
70559;BME280;58108;48.094;11.838;2023-11-21T04:40:37;94786.19;;;5.29;100.00
70559;BME280;58108;48.094;11.838;2023-11-21T04:43:02;94792.41;;;5.13;100.00
70559;BME280;58108;48.094;11.838;2023-11-21T04:45:29;94792.28;;;5.15;100.00
70559;BME280;58108;48.094;11.838;2023-11-21T04:47:54;94787.59;;;5.33;100.00
70559;BME280;58108;48.094;11.838;2023-11-21T04:50:20;94789.72;;;5.28;100.00
70559;BME280;58108;48.094;11.838;2023-11-21T04:52:45;94788.53;;;5.45;100.00
70559;BME280;58108;48.094;11.838;2023-11-21T04:55:11;94793.31;;;5.38;100.00
70559;BME280;58108;48.094;11.838;2023-11-21T04:57:36;94793.41;;;5.37;100.00
70559;BME280;58108;48.094;11.838;2023-11-21T05:00:03;94790.63;;;5.40;100.00
70559;BME280;58108;48.094;11.838;2023-11-21T05:02:32;94789.41;;;5.32;100.00
70559;BME280;58108;48.094;11.838;2023-11-21T05:04:59;94803.31;;;5.31;100.00
70559;BME280;58108;48.094;11.838;2023-11-21T05:07:25;94788.66;;;5.43;100.00
70559;BME280;58108;48.094;11.838;2023-11-21T05:09:54;94793.97;;;5.29;100.00
70559;BME280;58108;48.094;11.838;2023-11-21T05:12:22;94786.38;;;5.26;100.00
70559;BME280;58108;48.094;11.838;2023-11-21T05:14:49;94794.47;;;5.34;100.00
70559;BME280;58108;48.094;11.838;2023-11-21T05:17:15;94793.75;;;5.32;100.00
70559;BME280;58108;48.094;11.838;2023-11-21T05:19:40;94797.50;;;5.28;100.00
70559;BME280;58108;48.094;11.838;2023-11-21T05:22:06;94801.94;;;5.26;100.00
70559;BME280;58108;48.094;11.838;2023-11-21T05:24:31;94803.91;;;5.22;100.00
70559;BME280;58108;48.094;11.838;2023-11-21T05:26:57;94798.25;;;5.17;100.00
70559;BME280;58108;48.094;11.838;2023-11-21T05:29:23;94806.66;;;5.20;100.00
70559;BME280;58108;48.094;11.838;2023-11-21T05:31:48;94803.91;;;5.35;100.00
70559;BME280;58108;48.094;11.838;2023-11-21T05:34:15;94814.13;;;5.25;100.00
70559;BME280;58108;48.094;11.838;2023-11-21T05:36:43;94814.31;;;5.22;100.00
70559;BME280;58108;48.094;11.838;2023-11-21T05:39:08;94822.41;;;5.30;100.00
70559;BME280;58108;48.094;11.838;2023-11-21T05:41:35;94813.88;;;5.28;100.00
70559;BME280;58108;48.094;11.838;2023-11-21T05:44:00;94817.09;;;5.45;100.00
70559;BME280;58108;48.094;11.838;2023-11-21T05:46:27;94813.88;;;5.28;100.00
70559;BME280;58108;48.094;11.838;2023-11-21T05:48:53;94813.59;;;5.20;100.00
70559;BME280;58108;48.094;11.838;2023-11-21T05:51:18;94822.41;;;5.30;100.00
70559;BME280;58108;48.094;11.838;2023-11-21T05:53:44;94824.50;;;5.25;100.00
70559;BME280;58108;48.094;11.838;2023-11-21T05:56:10;94822.50;;;5.16;100.00
70559;BME280;58108;48.094;11.838;2023-11-21T05:58:35;94831.13;;;5.16;100.00
70559;BME280;58108;48.094;11.838;2023-11-21T06:01:01;94827.59;;;5.30;100.00
70559;BME280;58108;48.094;11.838;2023-11-21T06:03:27;94832.06;;;5.28;100.00
70559;BME280;58108;48.094;11.838;2023-11-21T06:05:53;94832.59;;;5.33;100.00
70559;BME280;58108;48.094;11.838;2023-11-21T06:08:19;94832.59;;;5.20;100.00
70559;BME280;58108;48.094;11.838;2023-11-21T06:10:45;94837.16;;;5.17;100.00
70559;BME280;58108;48.094;11.838;2023-11-21T06:13:10;94828.31;;;5.19;100.00
70559;BME280;58108;48.094;11.838;2023-11-21T06:15:36;94832.38;;;5.24;100.00
70559;BME280;58108;48.094;11.838;2023-11-21T06:18:01;94826.78;;;5.17;100.00
70559;BME280;58108;48.094;11.838;2023-11-21T06:20:27;94837.75;;;5.07;100.00
70559;BME280;58108;48.094;11.838;2023-11-21T06:22:53;94836.94;;;5.07;100.00
70559;BME280;58108;48.094;11.838;2023-11-21T06:25:19;94839.31;;;5.10;100.00
70559;BME280;58108;48.094;11.838;2023-11-21T06:27:48;94844.00;;;5.18;100.00
70559;BME280;58108;48.094;11.838;2023-11-21T06:30:14;94851.19;;;5.14;100.00
70559;BME280;58108;48.094;11.838;2023-11-21T06:32:41;94850.44;;;5.12;100.00
70559;BME280;58108;48.094;11.838;2023-11-21T06:35:07;94864.25;;;5.13;100.00
70559;BME280;58108;48.094;11.838;2023-11-21T06:37:36;94861.00;;;5.35;100.00
70559;BME280;58108;48.094;11.838;2023-11-21T06:40:02;94865.91;;;5.27;100.00
70559;BME280;58108;48.094;11.838;2023-11-21T06:42:29;94871.84;;;5.29;100.00
70559;BME280;58108;48.094;11.838;2023-11-21T06:44:56;94874.34;;;5.43;100.00
70559;BME280;58108;48.094;11.838;2023-11-21T06:47:23;94863.44;;;5.25;100.00
70559;BME280;58108;48.094;11.838;2023-11-21T06:49:53;94869.03;;;5.32;100.00
70559;BME280;58108;48.094;11.838;2023-11-21T06:52:19;94870.47;;;5.23;100.00
70559;BME280;58108;48.094;11.838;2023-11-21T06:54:45;94883.25;;;5.39;100.00
70559;BME280;58108;48.094;11.838;2023-11-21T06:57:12;94877.84;;;5.29;100.00
70559;BME280;58108;48.094;11.838;2023-11-21T06:59:38;94876.59;;;5.35;100.00
70559;BME280;58108;48.094;11.838;2023-11-21T07:02:04;94881.28;;;5.43;100.00
70559;BME280;58108;48.094;11.838;2023-11-21T07:04:35;94876.28;;;5.27;100.00
70559;BME280;58108;48.094;11.838;2023-11-21T07:07:06;94885.53;;;5.18;100.00
70559;BME280;58108;48.094;11.838;2023-11-21T07:09:32;94881.66;;;4.98;100.00
70559;BME280;58108;48.094;11.838;2023-11-21T07:11:58;94881.91;;;5.20;100.00
70559;BME280;58108;48.094;11.838;2023-11-21T07:14:23;94885.63;;;5.16;100.00
70559;BME280;58108;48.094;11.838;2023-11-21T07:16:49;94897.88;;;5.14;100.00
70559;BME280;58108;48.094;11.838;2023-11-21T07:19:14;94893.81;;;5.23;100.00
70559;BME280;58108;48.094;11.838;2023-11-21T07:21:40;94894.13;;;5.18;100.00
70559;BME280;58108;48.094;11.838;2023-11-21T07:24:07;94890.81;;;5.29;100.00
70559;BME280;58108;48.094;11.838;2023-11-21T07:26:33;94890.19;;;5.39;100.00
70559;BME280;58108;48.094;11.838;2023-11-21T07:29:00;94899.56;;;5.41;100.00
70559;BME280;58108;48.094;11.838;2023-11-21T07:31:26;94909.22;;;5.52;100.00
70559;BME280;58108;48.094;11.838;2023-11-21T07:33:52;94903.19;;;5.39;100.00
70559;BME280;58108;48.094;11.838;2023-11-21T07:36:19;94904.03;;;5.52;100.00
70559;BME280;58108;48.094;11.838;2023-11-21T07:38:46;94906.00;;;5.36;100.00
70559;BME280;58108;48.094;11.838;2023-11-21T07:41:11;94903.50;;;5.34;100.00
70559;BME280;58108;48.094;11.838;2023-11-21T07:43:41;94907.44;;;5.27;100.00
70559;BME280;58108;48.094;11.838;2023-11-21T07:46:07;94907.25;;;5.17;100.00
70559;BME280;58108;48.094;11.838;2023-11-21T07:48:36;94909.41;;;5.23;100.00
70559;BME280;58108;48.094;11.838;2023-11-21T07:51:02;94904.03;;;5.13;100.00
70559;BME280;58108;48.094;11.838;2023-11-21T07:53:32;94909.94;;;5.28;100.00
70559;BME280;58108;48.094;11.838;2023-11-21T07:56:08;94908.28;;;5.40;100.00
70559;BME280;58108;48.094;11.838;2023-11-21T07:58:35;94907.78;;;5.48;100.00
70559;BME280;58108;48.094;11.838;2023-11-21T08:01:01;94892.91;;;5.37;100.00
70559;BME280;58108;48.094;11.838;2023-11-21T08:03:27;94900.19;;;5.32;100.00
70559;BME280;58108;48.094;11.838;2023-11-21T08:05:54;94904.44;;;5.46;100.00
70559;BME280;58108;48.094;11.838;2023-11-21T08:08:20;94905.88;;;5.63;100.00
70559;BME280;58108;48.094;11.838;2023-11-21T08:10:46;94905.78;;;5.78;100.00
70559;BME280;58108;48.094;11.838;2023-11-21T08:13:25;94895.59;;;5.74;100.00
70559;BME280;58108;48.094;11.838;2023-11-21T08:15:53;94904.22;;;5.88;100.00
70559;BME280;58108;48.094;11.838;2023-11-21T08:18:19;94902.63;;;5.98;100.00
70559;BME280;58108;48.094;11.838;2023-11-21T08:20:45;94902.09;;;6.19;100.00
70559;BME280;58108;48.094;11.838;2023-11-21T08:23:16;94897.31;;;6.13;100.00
70559;BME280;58108;48.094;11.838;2023-11-21T08:25:45;94902.09;;;6.06;100.00
70559;BME280;58108;48.094;11.838;2023-11-21T08:28:12;94903.56;;;6.10;100.00
70559;BME280;58108;48.094;11.838;2023-11-21T08:30:39;94887.78;;;5.87;100.00
70559;BME280;58108;48.094;11.838;2023-11-21T08:33:07;94893.59;;;5.91;100.00
70559;BME280;58108;48.094;11.838;2023-11-21T08:35:34;94895.06;;;6.08;100.00
70559;BME280;58108;48.094;11.838;2023-11-21T08:38:00;94898.13;;;6.13;98.43
70559;BME280;58108;48.094;11.838;2023-11-21T08:40:25;94895.44;;;6.15;97.99
70559;BME280;58108;48.094;11.838;2023-11-21T08:42:51;94892.09;;;6.26;98.47
70559;BME280;58108;48.094;11.838;2023-11-21T08:45:21;94886.72;;;6.40;96.87
70559;BME280;58108;48.094;11.838;2023-11-21T08:47:47;94895.53;;;6.26;96.56
70559;BME280;58108;48.094;11.838;2023-11-21T08:50:13;94891.66;;;6.32;96.42
70559;BME280;58108;48.094;11.838;2023-11-21T08:52:40;94896.63;;;6.60;96.35
70559;BME280;58108;48.094;11.838;2023-11-21T08:55:07;94906.50;;;6.43;95.58
70559;BME280;58108;48.094;11.838;2023-11-21T08:57:41;94905.31;;;6.10;97.01
70559;BME280;58108;48.094;11.838;2023-11-21T09:00:09;94906.88;;;6.25;97.01
70559;BME280;58108;48.094;11.838;2023-11-21T09:02:37;94907.34;;;6.31;95.97
70559;BME280;58108;48.094;11.838;2023-11-21T09:05:04;94917.78;;;6.18;96.99
70559;BME280;58108;48.094;11.838;2023-11-21T09:07:30;94915.28;;;6.16;95.71
70559;BME280;58108;48.094;11.838;2023-11-21T09:09:56;94915.19;;;6.18;96.10
70559;BME280;58108;48.094;11.838;2023-11-21T09:12:21;94927.13;;;6.33;96.07
70559;BME280;58108;48.094;11.838;2023-11-21T09:14:47;94930.88;;;6.53;95.47
70559;BME280;58108;48.094;11.838;2023-11-21T09:17:13;94936.34;;;6.75;94.17
70559;BME280;58108;48.094;11.838;2023-11-21T09:19:40;94943.41;;;6.73;93.37
70559;BME280;58108;48.094;11.838;2023-11-21T09:22:06;94943.44;;;6.35;94.03
70559;BME280;58108;48.094;11.838;2023-11-21T09:24:32;94947.53;;;6.64;93.96
70559;BME280;58108;48.094;11.838;2023-11-21T09:26:58;94950.91;;;6.40;94.59
70559;BME280;58108;48.094;11.838;2023-11-21T09:29:26;94946.78;;;6.62;93.48
70559;BME280;58108;48.094;11.838;2023-11-21T09:31:51;94948.41;;;6.76;93.50
70559;BME280;58108;48.094;11.838;2023-11-21T09:34:17;94954.81;;;6.59;94.48
70559;BME280;58108;48.094;11.838;2023-11-21T09:36:47;94956.94;;;6.78;94.33
70559;BME280;58108;48.094;11.838;2023-11-21T09:39:15;94953.63;;;6.76;93.18
70559;BME280;58108;48.094;11.838;2023-11-21T09:41:52;94949.72;;;6.81;93.38
70559;BME280;58108;48.094;11.838;2023-11-21T09:44:48;94949.19;;;6.89;92.68
70559;BME280;58108;48.094;11.838;2023-11-21T09:47:17;94951.28;;;7.08;91.69
70559;BME280;58108;48.094;11.838;2023-11-21T09:49:47;94950.94;;;6.89;91.25
70559;BME280;58108;48.094;11.838;2023-11-21T09:52:20;94938.25;;;7.08;92.22
70559;BME280;58108;48.094;11.838;2023-11-21T09:54:49;94945.28;;;6.95;91.77
70559;BME280;58108;48.094;11.838;2023-11-21T09:57:15;94941.81;;;6.83;91.84
70559;BME280;58108;48.094;11.838;2023-11-21T09:59:42;94948.28;;;7.02;92.09
70559;BME280;58108;48.094;11.838;2023-11-21T10:02:08;94945.41;;;7.29;91.95
70559;BME280;58108;48.094;11.838;2023-11-21T10:04:38;94940.53;;;7.24;91.34
70559;BME280;58108;48.094;11.838;2023-11-21T10:07:04;94942.25;;;7.48;90.86
70559;BME280;58108;48.094;11.838;2023-11-21T10:09:36;94944.84;;;7.48;90.17
70559;BME280;58108;48.094;11.838;2023-11-21T10:12:05;94941.66;;;7.45;90.17
70559;BME280;58108;48.094;11.838;2023-11-21T10:14:37;94939.88;;;7.34;89.17
70559;BME280;58108;48.094;11.838;2023-11-21T10:17:07;94937.00;;;7.25;89.02
70559;BME280;58108;48.094;11.838;2023-11-21T10:19:35;94937.59;;;7.29;89.83
70559;BME280;58108;48.094;11.838;2023-11-21T10:22:02;94945.59;;;7.50;88.99
70559;BME280;58108;48.094;11.838;2023-11-21T10:24:28;94939.34;;;7.64;88.12
70559;BME280;58108;48.094;11.838;2023-11-21T10:26:54;94951.31;;;7.90;87.26
70559;BME280;58108;48.094;11.838;2023-11-21T10:29:20;94942.63;;;7.55;87.44
70559;BME280;58108;48.094;11.838;2023-11-21T10:31:52;94946.69;;;7.71;86.99
70559;BME280;58108;48.094;11.838;2023-11-21T10:34:20;94939.94;;;7.57;87.83
70559;BME280;58108;48.094;11.838;2023-11-21T10:36:46;94939.97;;;8.02;86.69
70559;BME280;58108;48.094;11.838;2023-11-21T10:39:21;94933.31;;;7.98;86.55
70559;BME280;58108;48.094;11.838;2023-11-21T10:41:49;94941.25;;;7.97;85.95
70559;BME280;58108;48.094;11.838;2023-11-21T10:44:17;94937.09;;;7.71;85.17
70559;BME280;58108;48.094;11.838;2023-11-21T10:46:55;94938.31;;;7.78;85.06
70559;BME280;58108;48.094;11.838;2023-11-21T10:49:25;94947.28;;;7.74;85.36
70559;BME280;58108;48.094;11.838;2023-11-21T10:51:52;94945.38;;;7.76;84.90
70559;BME280;58108;48.094;11.838;2023-11-21T10:54:23;94943.38;;;7.80;85.21
70559;BME280;58108;48.094;11.838;2023-11-21T10:56:50;94941.03;;;8.00;84.34
70559;BME280;58108;48.094;11.838;2023-11-21T10:59:17;94948.16;;;7.98;85.04
70559;BME280;58108;48.094;11.838;2023-11-21T11:01:45;94948.25;;;7.96;84.27
70559;BME280;58108;48.094;11.838;2023-11-21T11:04:11;94949.78;;;8.10;84.30
70559;BME280;58108;48.094;11.838;2023-11-21T11:06:44;94945.41;;;8.11;85.42
70559;BME280;58108;48.094;11.838;2023-11-21T11:09:13;94944.56;;;8.10;84.51
70559;BME280;58108;48.094;11.838;2023-11-21T11:11:40;94949.31;;;7.93;84.62
70559;BME280;58108;48.094;11.838;2023-11-21T11:14:10;94948.22;;;7.85;84.47
70559;BME280;58108;48.094;11.838;2023-11-21T11:16:38;94939.56;;;7.61;85.83
70559;BME280;58108;48.094;11.838;2023-11-21T11:19:10;94941.72;;;7.79;85.57
70559;BME280;58108;48.094;11.838;2023-11-21T11:27:15;94940.19;;;7.88;84.71
70559;BME280;58108;48.094;11.838;2023-11-21T11:35:58;94935.22;;;7.96;84.88
70559;BME280;58108;48.094;11.838;2023-11-21T11:38:31;94933.41;;;7.74;86.29
70559;BME280;58108;48.094;11.838;2023-11-21T11:40:56;94932.00;;;7.70;86.43
70559;BME280;58108;48.094;11.838;2023-11-21T11:43:26;94930.91;;;7.49;87.12
70559;BME280;58108;48.094;11.838;2023-11-21T11:45:55;94934.94;;;7.53;87.21
70559;BME280;58108;48.094;11.838;2023-11-21T11:48:22;94930.47;;;7.67;86.69
70559;BME280;58108;48.094;11.838;2023-11-21T11:53:39;94927.16;;;7.76;87.61
70559;BME280;58108;48.094;11.838;2023-11-21T11:56:27;94921.09;;;7.87;88.03
70559;BME280;58108;48.094;11.838;2023-11-21T11:58:55;94931.09;;;8.05;87.11
70559;BME280;58108;48.094;11.838;2023-11-21T12:01:22;94925.72;;;8.18;87.28
70559;BME280;58108;48.094;11.838;2023-11-21T12:07:02;94918.81;;;8.63;83.82
70559;BME280;58108;48.094;11.838;2023-11-21T12:09:29;94921.66;;;8.59;82.84
70559;BME280;58108;48.094;11.838;2023-11-21T12:11:55;94920.69;;;8.49;83.76
70559;BME280;58108;48.094;11.838;2023-11-21T12:14:22;94917.13;;;8.50;82.84
70559;BME280;58108;48.094;11.838;2023-11-21T12:16:47;94925.59;;;8.19;83.77
70559;BME280;58108;48.094;11.838;2023-11-21T12:19:13;94920.25;;;8.21;84.29
70559;BME280;58108;48.094;11.838;2023-11-21T12:21:40;94928.94;;;8.10;84.03
70559;BME280;58108;48.094;11.838;2023-11-21T12:24:15;94924.31;;;8.14;84.63
70559;BME280;58108;48.094;11.838;2023-11-21T12:26:42;94927.38;;;8.07;84.52
70559;BME280;58108;48.094;11.838;2023-11-21T12:29:08;94929.91;;;7.98;85.18
70559;BME280;58108;48.094;11.838;2023-11-21T12:31:34;94923.72;;;7.87;86.41
70559;BME280;58108;48.094;11.838;2023-11-21T12:34:00;94934.88;;;8.12;85.34
70559;BME280;58108;48.094;11.838;2023-11-21T12:36:26;94927.53;;;8.06;85.67
70559;BME280;58108;48.094;11.838;2023-11-21T12:38:54;94924.78;;;7.96;85.81
70559;BME280;58108;48.094;11.838;2023-11-21T12:41:20;94931.69;;;8.09;86.00
70559;BME280;58108;48.094;11.838;2023-11-21T12:43:46;94934.50;;;8.17;85.84
70559;BME280;58108;48.094;11.838;2023-11-21T12:46:13;94931.06;;;7.93;85.58
70559;BME280;58108;48.094;11.838;2023-11-21T12:48:44;94927.41;;;7.96;85.81
70559;BME280;58108;48.094;11.838;2023-11-21T12:51:12;94924.63;;;7.52;87.04
70559;BME280;58108;48.094;11.838;2023-11-21T12:53:39;94932.94;;;7.80;86.37
70559;BME280;58108;48.094;11.838;2023-11-21T12:56:15;94927.59;;;7.70;85.60
70559;BME280;58108;48.094;11.838;2023-11-21T12:58:44;94927.75;;;7.69;85.08
70559;BME280;58108;48.094;11.838;2023-11-21T13:01:13;94928.34;;;7.72;85.24
70559;BME280;58108;48.094;11.838;2023-11-21T13:03:43;94930.22;;;7.70;84.78
70559;BME280;58108;48.094;11.838;2023-11-21T13:06:11;94932.84;;;7.82;85.03
70559;BME280;58108;48.094;11.838;2023-11-21T13:08:37;94931.03;;;7.82;85.16
70559;BME280;58108;48.094;11.838;2023-11-21T13:11:04;94932.13;;;7.91;84.82
70559;BME280;58108;48.094;11.838;2023-11-21T13:13:31;94931.41;;;8.00;84.17